createdAt,value
2022-11-12T00:01:24.830Z,2.38
2022-11-12T00:04:10.477Z,1.52
2022-11-12T00:06:55.883Z,2.15
2022-11-12T00:09:41.557Z,1.42
2022-11-12T00:12:27.073Z,1.70
2022-11-12T00:15:12.905Z,1.83
2022-11-12T00:17:58.270Z,1.90
2022-11-12T00:20:44.484Z,2.85
2022-11-12T00:23:30.104Z,1.92
2022-11-12T00:26:15.392Z,2.22
2022-11-12T00:29:01.072Z,2.05
2022-11-12T00:31:46.746Z,2.15
2022-11-12T00:34:33.040Z,2.00
2022-11-12T00:37:18.968Z,2.58
2022-11-12T00:40:05.193Z,1.95
2022-11-12T00:42:52.237Z,2.30
2022-11-12T00:45:37.850Z,1.83
2022-11-12T00:48:23.710Z,1.45
2022-11-12T00:51:09.583Z,2.90
2022-11-12T00:53:55.032Z,2.05
2022-11-12T00:56:40.705Z,2.70
2022-11-12T00:59:26.273Z,2.60
2022-11-12T01:02:12.091Z,2.38
2022-11-12T01:04:57.650Z,3.03
2022-11-12T01:07:43.477Z,2.83
2022-11-12T01:10:29.161Z,2.70
2022-11-12T01:13:14.732Z,2.97
2022-11-12T01:16:04.604Z,2.78
2022-11-12T01:18:56.207Z,2.63
2022-11-12T01:21:43.773Z,3.03
2022-11-12T01:24:28.961Z,3.25
2022-11-12T01:27:14.533Z,3.22
2022-11-12T01:29:59.909Z,3.90
2022-11-12T01:32:45.907Z,4.00
2022-11-12T01:35:31.405Z,3.67
2022-11-12T01:38:17.090Z,3.47
2022-11-12T01:41:02.628Z,3.55
2022-11-12T01:43:48.180Z,4.53
2022-11-12T01:46:33.922Z,4.07
2022-11-12T01:49:35.666Z,4.70
2022-11-12T01:52:31.542Z,3.65
2022-11-12T01:55:20.410Z,3.70
2022-11-12T01:58:09.586Z,3.95
2022-11-12T02:00:54.939Z,3.60
2022-11-12T02:03:40.781Z,3.47
2022-11-12T02:06:26.478Z,3.35
2022-11-12T02:09:11.727Z,2.95
2022-11-12T02:11:57.953Z,3.42
2022-11-12T02:14:43.567Z,3.55
2022-11-12T02:17:29.144Z,3.17
2022-11-12T02:20:14.982Z,4.03
2022-11-12T02:23:00.217Z,3.17
2022-11-12T02:25:45.618Z,4.07
2022-11-12T02:28:31.376Z,4.07
2022-11-12T02:31:17.210Z,4.43
2022-11-12T02:34:02.553Z,3.75
2022-11-12T02:36:48.017Z,3.67
2022-11-12T02:39:33.485Z,4.10
2022-11-12T02:42:18.779Z,3.95
2022-11-12T02:45:04.884Z,4.28
2022-11-12T02:47:50.240Z,3.60
2022-11-12T02:50:35.747Z,3.65
2022-11-12T02:53:21.230Z,4.70
2022-11-12T02:56:06.902Z,4.60
2022-11-12T02:58:52.497Z,4.20
2022-11-12T03:01:38.014Z,4.03
2022-11-12T03:04:23.680Z,5.32
2022-11-12T03:07:09.560Z,3.87
2022-11-12T03:09:54.964Z,4.18
2022-11-12T03:12:40.773Z,4.18
2022-11-12T03:15:26.466Z,3.88
2022-11-12T03:18:12.181Z,3.92
2022-11-12T03:20:58.202Z,3.85
2022-11-12T03:23:43.432Z,3.22
2022-11-12T03:26:34.521Z,3.92
2022-11-12T03:29:21.342Z,4.40
2022-11-12T03:32:07.012Z,3.75
2022-11-12T03:34:55.488Z,2.90
2022-11-12T03:37:41.310Z,4.15
2022-11-12T03:40:26.973Z,3.20
2022-11-12T03:43:14.228Z,2.72
2022-11-12T03:45:59.874Z,3.20
2022-11-12T03:48:45.326Z,3.03
2022-11-12T03:51:30.979Z,2.63
2022-11-12T03:54:16.409Z,3.55
2022-11-12T03:57:02.049Z,3.15
2022-11-12T03:59:47.842Z,3.20
2022-11-12T04:02:33.464Z,3.60
2022-11-12T04:05:37.701Z,3.43
2022-11-12T04:08:36.492Z,3.83
2022-11-12T04:11:22.173Z,2.65
2022-11-12T04:14:07.644Z,3.20
2022-11-12T04:17:11.198Z,2.92
2022-11-12T04:20:15.365Z,3.38
2022-11-12T04:23:01.054Z,3.15
2022-11-12T04:26:05.181Z,3.13
2022-11-12T04:29:13.999Z,2.20
2022-11-12T04:31:59.276Z,2.92
2022-11-12T04:34:44.898Z,2.53
2022-11-12T04:37:45.368Z,2.70
2022-11-12T04:40:49.640Z,2.85
2022-11-12T04:43:53.706Z,2.78
2022-11-12T04:46:39.590Z,3.35
2022-11-12T04:49:25.001Z,2.70
2022-11-12T04:52:10.726Z,2.90
2022-11-12T04:54:56.866Z,3.00
2022-11-12T04:57:42.495Z,2.80
2022-11-12T05:00:28.439Z,2.80
2022-11-12T05:03:13.965Z,2.65
2022-11-12T05:06:02.835Z,2.70
2022-11-12T05:08:48.217Z,2.63
2022-11-12T05:11:33.863Z,3.22
2022-11-12T05:14:19.193Z,3.38
2022-11-12T05:17:04.749Z,3.90
2022-11-12T05:19:50.191Z,3.30
2022-11-12T05:22:45.577Z,4.60
2022-11-12T05:25:34.482Z,3.65
2022-11-12T05:31:05.615Z,3.13
2022-11-12T05:33:51.013Z,3.17
2022-11-12T05:36:36.302Z,3.58
2022-11-12T05:39:22.159Z,3.15
2022-11-12T05:42:14.797Z,4.20
2022-11-12T05:45:00.505Z,4.63
2022-11-12T05:47:45.686Z,3.88
2022-11-12T05:50:39.788Z,3.20
2022-11-12T05:53:30.988Z,3.38
2022-11-12T05:56:16.366Z,3.35
2022-11-12T05:59:02.395Z,3.40
2022-11-12T06:01:48.284Z,3.55
2022-11-12T06:04:33.770Z,3.80
2022-11-12T06:07:19.655Z,3.25
2022-11-12T06:10:05.380Z,3.72
2022-11-12T06:12:50.859Z,3.22
2022-11-12T06:15:39.325Z,3.42
2022-11-12T06:18:25.622Z,3.95
2022-11-12T06:21:23.965Z,2.55
2022-11-12T06:24:09.594Z,2.65
2022-11-12T06:26:55.128Z,3.00
2022-11-12T06:29:43.353Z,2.75
2022-11-12T06:32:34.677Z,2.95
2022-11-12T06:35:23.129Z,3.30
2022-11-12T06:38:12.570Z,2.38
2022-11-12T06:41:00.990Z,3.03
2022-11-12T06:46:51.194Z,2.80
2022-11-12T06:49:43.236Z,2.90
2022-11-12T06:52:35.045Z,2.63
2022-11-12T06:55:24.316Z,2.05
2022-11-12T06:58:12.644Z,2.28
2022-11-12T07:01:15.873Z,3.03
2022-11-12T07:04:05.421Z,2.50
2022-11-12T07:06:53.704Z,2.70
2022-11-12T07:09:42.134Z,2.88
2022-11-12T07:12:29.007Z,3.10
2022-11-12T07:15:17.449Z,3.38
2022-11-12T07:18:08.872Z,2.75
2022-11-12T07:21:08.381Z,3.08
2022-11-12T07:23:58.011Z,3.15
2022-11-12T07:26:57.045Z,2.80
2022-11-12T07:29:49.039Z,2.80
2022-11-12T07:32:43.258Z,2.38
2022-11-12T07:35:34.653Z,3.22
2022-11-12T07:38:24.408Z,3.42
2022-11-12T07:41:22.140Z,3.08
2022-11-12T07:44:11.192Z,2.85
2022-11-12T07:47:05.386Z,3.50
2022-11-12T07:49:57.657Z,3.70
2022-11-12T07:52:49.445Z,3.08
2022-11-12T07:55:53.726Z,3.72
2022-11-12T07:58:52.720Z,3.65
2022-11-12T08:01:41.799Z,4.78
2022-11-12T08:04:27.755Z,4.22
2022-11-12T08:07:13.421Z,5.97
2022-11-12T08:09:59.574Z,5.40
2022-11-12T08:12:47.347Z,4.22
2022-11-12T08:15:33.493Z,4.60
2022-11-12T08:18:20.910Z,5.10
2022-11-12T08:21:13.524Z,4.70
2022-11-12T08:24:00.580Z,3.67
2022-11-12T08:26:49.849Z,4.50
2022-11-12T08:29:35.537Z,3.75
2022-11-12T08:32:29.907Z,4.25
2022-11-12T08:35:16.899Z,3.92
2022-11-12T08:38:04.485Z,3.70
2022-11-12T08:41:17.759Z,3.40
2022-11-12T08:44:08.311Z,4.68
2022-11-12T08:46:54.462Z,4.00
2022-11-12T08:49:42.573Z,5.22
2022-11-12T08:52:32.235Z,3.58
2022-11-12T08:55:17.703Z,4.05
2022-11-12T08:58:03.825Z,3.55
2022-11-12T09:00:50.904Z,3.67
2022-11-12T09:03:36.456Z,4.10
2022-11-12T09:06:21.777Z,3.13
2022-11-12T09:09:07.441Z,4.15
2022-11-12T09:11:53.257Z,5.70
2022-11-12T09:14:39.578Z,5.35
2022-11-12T09:17:25.637Z,4.50
2022-11-12T09:20:11.413Z,4.78
2022-11-12T09:23:01.786Z,3.50
2022-11-12T09:25:48.024Z,3.90
2022-11-12T09:28:33.467Z,3.13
2022-11-12T09:31:18.993Z,2.80
2022-11-12T09:34:04.857Z,3.60
2022-11-12T09:36:50.388Z,3.55
2022-11-12T09:39:36.234Z,2.60
2022-11-12T09:42:22.285Z,2.88
2022-11-12T09:45:19.741Z,3.05
2022-11-12T09:48:08.368Z,2.40
2022-11-12T09:50:59.995Z,2.80
2022-11-12T09:53:56.056Z,3.20
2022-11-12T09:56:41.345Z,3.08
2022-11-12T09:59:35.971Z,2.83
2022-11-12T10:02:27.581Z,2.40
2022-11-12T10:05:22.044Z,2.92
2022-11-12T10:08:32.714Z,2.00
2022-11-12T10:11:30.015Z,2.50
2022-11-12T10:14:46.268Z,2.60
2022-11-12T10:17:37.374Z,2.10
2022-11-12T10:20:34.660Z,2.55
2022-11-12T10:23:52.781Z,2.65
2022-11-12T10:26:38.944Z,3.75
2022-11-12T10:29:31.774Z,3.47
2022-11-12T10:32:17.126Z,2.30
2022-11-12T10:35:02.610Z,2.55
2022-11-12T10:37:51.940Z,2.88
2022-11-12T10:40:39.596Z,2.70
2022-11-12T10:43:25.412Z,2.63
2022-11-12T10:46:37.280Z,3.25
2022-11-12T10:49:26.165Z,2.08
2022-11-12T10:52:22.217Z,2.35
2022-11-12T10:55:22.538Z,2.50
2022-11-12T10:58:19.539Z,2.60
2022-11-12T11:03:57.160Z,1.90
2022-11-12T11:06:42.520Z,3.40
2022-11-12T11:09:28.115Z,2.03
2022-11-12T11:12:26.412Z,2.30
2022-11-12T11:15:21.669Z,2.50
2022-11-12T11:18:11.052Z,1.92
2022-11-12T11:21:19.624Z,2.47
2022-11-12T11:24:14.277Z,1.52
2022-11-12T11:27:30.290Z,1.88
2022-11-12T11:30:18.503Z,1.77
2022-11-12T11:33:24.345Z,1.67
2022-11-12T11:36:39.166Z,0.90
2022-11-12T11:39:31.983Z,1.38
2022-11-12T11:42:18.485Z,1.05
2022-11-12T11:45:19.191Z,0.50
2022-11-12T11:48:27.705Z,0.80
2022-11-12T11:51:35.016Z,0.90
2022-11-12T11:54:32.282Z,1.05
2022-11-12T11:57:47.995Z,0.77
2022-11-12T12:01:11.193Z,1.55
2022-11-12T12:04:38.913Z,1.00
2022-11-12T12:07:37.802Z,1.02
2022-11-12T12:10:40.238Z,1.00
2022-11-12T12:13:31.947Z,0.98
2022-11-12T12:16:27.838Z,0.98
2022-11-12T12:19:31.596Z,0.88
2022-11-12T12:22:21.299Z,0.82
2022-11-12T12:25:24.731Z,1.20
2022-11-12T12:28:53.714Z,0.63
2022-11-12T12:31:41.955Z,0.70
2022-11-12T12:34:41.181Z,0.32
2022-11-12T12:37:33.623Z,0.98
2022-11-12T12:40:24.960Z,0.45
2022-11-12T12:43:20.464Z,0.55
2022-11-12T12:46:05.915Z,0.57
2022-11-12T12:48:52.733Z,0.43
2022-11-12T12:51:38.202Z,0.93
2022-11-12T12:54:36.248Z,0.60
2022-11-12T12:57:27.657Z,0.80
2022-11-12T13:00:38.971Z,0.32
2022-11-12T13:03:45.843Z,0.57
2022-11-12T13:07:00.691Z,0.20
2022-11-12T13:09:46.100Z,0.38
2022-11-12T13:13:03.564Z,0.50
2022-11-12T13:15:53.928Z,0.30
2022-11-12T13:18:43.092Z,0.57
2022-11-12T13:21:29.017Z,0.60
2022-11-12T13:24:14.496Z,0.20
2022-11-12T13:27:00.199Z,0.33
2022-11-12T13:29:46.953Z,0.40
2022-11-12T13:32:57.360Z,0.30
2022-11-12T13:35:42.924Z,0.60
2022-11-12T13:38:28.890Z,0.50
2022-11-12T13:41:17.947Z,0.93
2022-11-12T13:44:06.616Z,0.60
2022-11-12T13:46:52.661Z,0.45
2022-11-12T13:49:38.279Z,0.50
2022-11-12T13:52:23.609Z,0.40
2022-11-12T13:55:22.421Z,0.53
2022-11-12T13:58:27.520Z,0.50
2022-11-12T14:01:13.217Z,0.60
2022-11-12T14:03:58.570Z,0.50
2022-11-12T14:06:49.045Z,0.20
2022-11-12T14:09:54.461Z,0.40
2022-11-12T14:12:46.428Z,0.20
2022-11-12T14:15:46.034Z,0.40
2022-11-12T14:18:55.163Z,0.70
2022-11-12T14:21:40.781Z,0.55
2022-11-12T14:24:26.462Z,0.40
2022-11-12T14:27:22.563Z,0.30
2022-11-12T14:30:22.055Z,0.20
2022-11-12T14:33:09.443Z,0.20
2022-11-12T14:35:59.173Z,0.40
2022-11-12T14:38:52.306Z,0.25
2022-11-12T14:41:38.866Z,0.30
2022-11-12T14:44:34.968Z,0.30
2022-11-12T14:47:20.654Z,0.25
2022-11-12T14:50:06.426Z,0.43
2022-11-12T14:53:03.405Z,0.50
2022-11-12T14:55:50.412Z,0.63
2022-11-12T14:58:35.973Z,0.50
2022-11-12T15:02:03.948Z,1.43
2022-11-12T15:04:37.301Z,0.47
2022-11-12T15:07:31.241Z,0.35
2022-11-12T15:10:43.350Z,0.75
2022-11-12T15:13:29.318Z,0.82
2022-11-12T15:16:33.442Z,0.60
2022-11-12T15:19:28.044Z,1.17
2022-11-12T15:22:22.351Z,0.52
2022-11-12T15:25:31.679Z,0.63
2022-11-12T15:28:22.668Z,0.77
2022-11-12T15:31:19.263Z,0.60
2022-11-12T15:34:38.497Z,0.70
2022-11-12T15:37:25.879Z,1.17
2022-11-12T15:40:15.921Z,0.80
2022-11-12T15:43:01.497Z,1.08
2022-11-12T15:45:50.903Z,1.08
2022-11-12T15:48:36.155Z,0.90
2022-11-12T15:51:22.162Z,1.13
2022-11-12T15:54:07.702Z,1.70
2022-11-12T15:56:53.004Z,0.73
2022-11-12T15:59:38.376Z,1.05
2022-11-12T16:02:23.724Z,0.93
2022-11-12T16:05:18.838Z,1.00
2022-11-12T16:08:04.874Z,1.20
2022-11-12T16:10:50.597Z,1.20
2022-11-12T16:13:36.288Z,1.40
2022-11-12T16:16:21.812Z,1.23
2022-11-12T16:19:16.708Z,1.58
2022-11-12T16:22:02.206Z,1.42
2022-11-12T16:24:48.034Z,1.40
2022-11-12T16:27:33.560Z,1.55
2022-11-12T16:30:21.117Z,1.50
2022-11-12T16:33:07.032Z,1.35
2022-11-12T16:35:52.175Z,1.58
2022-11-12T16:38:37.646Z,1.73
2022-11-12T16:41:23.056Z,1.52
2022-11-12T16:44:08.488Z,1.73
2022-11-12T16:46:54.111Z,1.80
2022-11-12T16:49:39.463Z,2.28
2022-11-12T16:52:25.870Z,1.38
2022-11-12T16:55:11.093Z,2.00
2022-11-12T16:57:56.635Z,2.05
2022-11-12T17:00:44.202Z,2.57
2022-11-12T17:03:30.034Z,2.47
2022-11-12T17:06:15.769Z,1.80
2022-11-12T17:09:01.053Z,2.45
2022-11-12T17:11:47.015Z,1.85
2022-11-12T17:14:32.554Z,2.47
2022-11-12T17:17:17.986Z,2.53
2022-11-12T17:20:04.106Z,1.90
2022-11-12T17:22:50.063Z,2.03
2022-11-12T17:25:35.477Z,2.38
2022-11-12T17:28:20.874Z,2.60
2022-11-12T17:31:19.889Z,2.53
2022-11-12T17:34:06.371Z,3.03
2022-11-12T17:39:37.458Z,3.50
2022-11-12T17:42:23.022Z,2.88
2022-11-12T17:45:08.892Z,2.97
2022-11-12T17:47:54.644Z,2.65
2022-11-12T17:50:40.191Z,3.65
2022-11-12T17:53:25.836Z,3.40
2022-11-12T17:56:13.099Z,3.53
2022-11-12T17:58:58.705Z,3.92
2022-11-12T18:01:44.234Z,3.40
2022-11-12T18:04:30.902Z,3.55
2022-11-12T18:07:16.895Z,3.42
2022-11-12T18:10:03.801Z,3.72
2022-11-12T18:12:50.827Z,4.63
2022-11-12T18:15:36.723Z,4.10
2022-11-12T18:18:22.375Z,4.32
2022-11-12T18:21:08.750Z,4.23
2022-11-12T18:23:54.352Z,4.47
2022-11-12T18:26:39.890Z,3.17
2022-11-12T18:29:25.263Z,3.58
2022-11-12T18:32:10.741Z,3.70
2022-11-12T18:34:56.399Z,4.32
2022-11-12T18:37:44.196Z,4.63
2022-11-12T18:40:29.735Z,4.63
2022-11-12T18:43:15.179Z,5.38
2022-11-12T18:46:00.838Z,7.15
2022-11-12T18:48:47.320Z,5.35
2022-11-12T18:51:36.218Z,5.88
2022-11-12T18:54:23.649Z,5.30
2022-11-12T18:57:09.411Z,4.90
2022-11-12T18:59:55.127Z,4.30
2022-11-12T19:02:40.687Z,5.10
2022-11-12T19:05:26.372Z,5.38
2022-11-12T19:08:11.793Z,5.35
2022-11-12T19:11:01.558Z,5.28
2022-11-12T19:13:50.582Z,5.70
2022-11-12T19:16:36.083Z,6.25
2022-11-12T19:19:21.199Z,5.90
2022-11-12T19:22:06.845Z,6.22
2022-11-12T19:24:52.336Z,5.90
2022-11-12T19:27:37.892Z,6.93
2022-11-12T19:30:23.270Z,5.80
2022-11-12T19:33:08.821Z,6.88
2022-11-12T19:35:54.483Z,5.88
2022-11-12T19:38:40.324Z,5.72
2022-11-12T19:41:25.794Z,5.43
2022-11-12T19:44:11.091Z,6.32
2022-11-12T19:46:56.803Z,6.35
2022-11-12T19:49:42.251Z,6.60
2022-11-12T19:52:27.609Z,6.32
2022-11-12T19:55:13.120Z,6.30
2022-11-12T19:57:58.796Z,6.25
2022-11-12T20:00:44.200Z,6.65
2022-11-12T20:03:30.387Z,6.55
2022-11-12T20:06:19.900Z,6.32
2022-11-12T20:09:05.596Z,6.20
2022-11-12T20:11:51.146Z,6.18
2022-11-12T20:14:37.117Z,6.23
2022-11-12T20:17:22.917Z,6.15
2022-11-12T20:20:11.551Z,5.55
2022-11-12T20:22:57.034Z,6.15
2022-11-12T20:25:42.651Z,6.75
2022-11-12T20:28:28.376Z,8.48
2022-11-12T20:31:15.445Z,8.05
2022-11-12T20:34:02.024Z,6.35
2022-11-12T20:36:47.414Z,6.88
2022-11-12T20:39:32.672Z,6.03
2022-11-12T20:42:18.515Z,6.60
2022-11-12T20:45:04.513Z,5.85
2022-11-12T20:47:50.005Z,6.20
2022-11-12T20:50:36.876Z,6.57
2022-11-12T20:56:12.644Z,6.43
2022-11-12T20:58:58.736Z,6.03
2022-11-12T21:01:44.492Z,5.93
2022-11-12T21:04:30.407Z,5.93
2022-11-12T21:07:15.983Z,5.43
2022-11-12T21:10:01.567Z,5.72
2022-11-12T21:12:46.944Z,5.80
2022-11-12T21:15:32.665Z,6.53
2022-11-12T21:18:18.201Z,6.07
2022-11-12T21:21:07.940Z,7.00
2022-11-12T21:23:53.943Z,6.55
2022-11-12T21:26:39.315Z,6.90
2022-11-12T21:29:24.670Z,7.10
2022-11-12T21:32:10.086Z,6.25
2022-11-12T21:34:55.762Z,6.68
2022-11-12T21:37:41.354Z,7.35
2022-11-12T21:40:26.938Z,7.15
2022-11-12T21:43:12.404Z,6.10
2022-11-12T21:45:57.853Z,7.20
2022-11-12T21:48:43.365Z,6.20
2022-11-12T21:51:32.738Z,5.90
2022-11-12T21:54:17.986Z,5.85
2022-11-12T21:57:03.512Z,6.47
2022-11-12T21:59:48.711Z,6.38
2022-11-12T22:06:38.484Z,6.97
2022-11-12T22:09:24.007Z,6.90
2022-11-12T22:12:09.662Z,6.18
2022-11-12T22:14:55.468Z,6.20
2022-11-12T22:17:41.263Z,6.32
2022-11-12T22:20:26.598Z,7.30
2022-11-12T22:23:12.270Z,7.35
2022-11-12T22:26:13.518Z,6.38
2022-11-12T22:28:59.339Z,7.22
2022-11-12T22:31:44.736Z,6.97
2022-11-12T22:34:30.480Z,7.72
2022-11-12T22:37:15.760Z,6.55
2022-11-12T22:40:01.326Z,7.43
2022-11-12T22:42:47.138Z,7.18
2022-11-12T22:45:32.407Z,6.72
2022-11-12T22:48:17.750Z,7.53
2022-11-12T22:51:04.794Z,6.60
2022-11-12T22:53:54.782Z,7.03
2022-11-12T22:56:40.751Z,7.38
2022-11-12T22:59:26.383Z,7.18
2022-11-12T23:02:11.786Z,7.65
2022-11-12T23:04:57.189Z,7.13
2022-11-12T23:07:42.776Z,6.68
2022-11-12T23:10:28.762Z,7.80
2022-11-12T23:13:14.058Z,6.47
2022-11-12T23:15:59.459Z,6.70
2022-11-12T23:18:45.353Z,6.50
2022-11-12T23:21:30.993Z,6.45
2022-11-12T23:24:16.436Z,6.10
2022-11-12T23:27:09.131Z,6.18
2022-11-12T23:29:55.002Z,5.90
2022-11-12T23:32:40.510Z,5.90
2022-11-12T23:35:25.819Z,5.55
2022-11-12T23:38:11.179Z,5.93
2022-11-12T23:40:56.964Z,5.97
2022-11-12T23:43:42.422Z,5.88
2022-11-12T23:46:27.961Z,5.28
2022-11-12T23:49:13.258Z,5.20
2022-11-12T23:51:58.986Z,5.97
2022-11-12T23:54:44.417Z,5.72
2022-11-12T23:57:30.208Z,5.38
